Aérodrome :
LOGIN :

S'inscrire | Disclaimer

   EN    FR    IT 

 










Légende :    VFR   VFR Marginal   IFR   IFR Intensif   IFR Très Intensif
Visi : 
Plafond : 
>= 8 km
>= 3000ft
5 à 8 km
1000 à 3000 ft
1500m à 5 km
500 à 1000 ft
800 à 1500m
200 à 500 ft
< 800m
< 200 ft
Symboles :   Orages  Brouillard  Fortes neiges  Fortes précipitations  Vent > 20 kt
SIGMETs :   Divers  Orages  Givrage  Turbulence  Onde Orograph.  Cendres Volcan.






- Altitude de l'aérodrome : 65 ft
- Code IATA : PIK


EGPK - Glasgow Prestwick

DERNIER METAR :
  • 271620Z 27008KT 230V300 9999 BKN046 14/10 Q1010

METARs EXPIRÉS :
  • 271550Z 24011KT 9999 BKN046 14/09 Q1010
  • 271520Z 24011KT 9999 SCT028 BKN047 14/09 Q1010
  • 271450Z 24011KT 9999 SCT028 BKN042 14/10 Q1010
  • 271420Z 24011KT 9999 SCT034 BKN044 15/10 Q1010
  • 271350Z 23011KT 9999 SCT028 BKN039 14/09 Q1010
  • 271320Z 23013KT 9999 SCT020 BKN035 13/10 Q1010
  • 271250Z 23012KT 9999 SCT020 BKN035 13/10 Q1010
  • 271220Z 23012KT 9999 SCT020 BKN030 13/10 Q1010
  • 271150Z 24011KT 9999 SCT020 BKN030 13/10 Q1009

TAF TAF EGPK
Valide du 27 à 12h jusqu'au 28 à 12h UTC


271056Z 2712/2812 24010KT 9999 SCT020
PROB30
TEMPO 2712/2717 3000 +SHRA BKN014 BKN025CB
BECMG 2717/2720 15008KT
TEMPO 2807/2812 8000 -RA
PROB30
TEMPO 2808/2812 RA BKN012



MET'MAP, la Météo Aéronautique d'un coup d'oeil ! - Copyright ORBIFLY Décembre 2007 - Disclaimer

ORBIFLY MET'MAP TEAM :

Programmation & Développement : Alexandra Zaïnal
Sur une idée originale de : Baudouin d'Aumeries
Soutien technique & logistique : Manuel Goepfert
Assistance : Marc-Olivier Méhu




SOURCES & CREDITS :

   NOAA